Time;durP1;ratioP1;P1;durP2;ratioP2;P2;SDS_P1;SDS_P2;PMS_P1;PMS_P2;Temp;Humidity;BMP_temperature;BMP_pressure;BME280_temperature;BME280_humidity;BME280_pressure;Samples;Min_cycle;Max_cycle;Signal;HPM_P1;HPM_P2
2022/04/15 00:00:07;;;;;;;15.40;6.90;;;11.10;99.90;;;;;;5032444;28;20045;-75
2022/04/15 00:02:32;;;;;;;15.88;7.45;;;11.00;99.90;;;;;;5032434;28;20502;-75
2022/04/15 00:04:59;;;;;;;22.48;7.47;;;11.00;99.90;;;;;;5032685;28;20132;-75
2022/04/15 00:07:25;;;;;;;17.15;6.88;;;11.00;99.90;;;;;;5032241;28;20085;-75
2022/04/15 00:09:50;;;;;;;11.57;5.90;;;11.00;99.90;;;;;;5015720;28;20092;-75
2022/04/15 00:12:27;;;;;;;15.15;7.03;;;11.00;99.90;;;;;;5032023;28;20107;-75
2022/04/15 00:14:54;;;;;;;23.50;6.93;;;11.00;99.90;;;;;;5032367;28;20050;-75
2022/04/15 00:17:20;;;;;;;19.73;7.55;;;10.90;99.90;;;;;;5032557;28;20049;-75
2022/04/15 00:19:47;;;;;;;14.13;6.05;;;10.80;99.90;;;;;;5033228;28;20400;-75
2022/04/15 00:22:13;;;;;;;11.38;6.50;;;11.00;99.90;;;;;;5036049;28;20132;-75
2022/04/15 00:24:38;;;;;;;12.60;6.05;;;11.10;99.90;;;;;;5036066;28;20124;-75
2022/04/15 00:27:04;;;;;;;10.80;6.05;;;11.20;99.90;;;;;;5035925;28;20542;-75
2022/04/15 00:29:30;;;;;;;12.77;5.57;;;11.30;99.90;;;;;;5036313;28;20611;-75
2022/04/15 00:31:56;;;;;;;13.05;6.60;;;11.30;99.90;;;;;;5035850;28;20045;-75
2022/04/15 00:34:22;;;;;;;17.70;7.40;;;11.40;99.90;;;;;;5035862;28;20049;-75
2022/04/15 00:36:48;;;;;;;14.43;6.22;;;11.30;99.90;;;;;;5035607;28;20091;-75
2022/04/15 00:39:14;;;;;;;14.20;5.93;;;11.30;99.90;;;;;;5035712;28;20081;-75
2022/04/15 00:41:43;;;;;;;12.63;5.70;;;11.30;99.90;;;;;;5035629;28;20068;-75
2022/04/15 00:44:09;;;;;;;13.30;6.28;;;11.40;99.90;;;;;;5035705;28;20108;-75
2022/04/15 00:46:34;;;;;;;11.18;5.82;;;11.40;99.90;;;;;;5018903;28;20496;-75
2022/04/15 00:49:00;;;;;;;15.73;5.80;;;11.50;99.90;;;;;;5035489;28;20128;-75
2022/04/15 00:51:27;;;;;;;15.23;6.95;;;11.60;99.90;;;;;;5035652;28;20095;-75
2022/04/15 00:53:54;;;;;;;12.00;5.75;;;11.60;99.90;;;;;;5035519;28;20459;-75
2022/04/15 00:56:22;;;;;;;14.85;6.00;;;11.60;99.90;;;;;;5035270;28;20045;-75
2022/04/15 00:58:50;;;;;;;15.45;5.78;;;11.60;99.90;;;;;;5035416;28;20115;-75
2022/04/15 01:01:16;;;;;;;12.55;5.25;;;11.50;99.90;;;;;;5035745;28;20045;-75
2022/04/15 01:03:43;;;;;;;14.75;5.50;;;11.50;99.90;;;;;;5035357;28;20392;-75
2022/04/15 01:06:11;;;;;;;11.77;5.05;;;11.40;99.90;;;;;;5035171;28;20057;-75
2022/04/15 01:08:41;;;;;;;11.50;4.53;;;11.40;99.90;;;;;;5034258;28;20049;-75
2022/04/15 01:11:07;;;;;;;17.83;4.80;;;11.40;99.90;;;;;;5036090;28;20061;-75
2022/04/15 01:13:36;;;;;;;8.93;4.50;;;11.40;99.90;;;;;;5035225;28;20049;-75
2022/04/15 01:16:02;;;;;;;13.15;5.03;;;11.50;99.90;;;;;;5035166;28;20103;-75
2022/04/15 01:18:27;;;;;;;12.55;5.15;;;11.40;99.90;;;;;;5018350;28;20045;-75
2022/04/15 01:20:53;;;;;;;12.15;5.05;;;11.40;99.90;;;;;;5034980;28;20042;-75
2022/04/15 01:23:20;;;;;;;9.73;4.55;;;11.40;99.90;;;;;;5034831;28;20081;-75
2022/04/15 01:25:46;;;;;;;12.65;4.28;;;11.40;99.90;;;;;;5034998;28;20076;-75
2022/04/15 01:28:16;;;;;;;14.40;5.18;;;11.40;99.90;;;;;;5034826;28;20063;-75
2022/04/15 01:30:44;;;;;;;10.10;4.32;;;11.40;99.90;;;;;;5034773;28;20407;-76
2022/04/15 01:33:09;;;;;;;11.40;4.82;;;11.20;99.90;;;;;;5034776;28;20059;-75
2022/04/15 01:35:35;;;;;;;10.60;4.50;;;11.30;99.90;;;;;;5034761;28;20489;-75
2022/04/15 01:38:04;;;;;;;7.50;4.30;;;11.30;99.90;;;;;;5034413;28;20132;-75
2022/04/15 01:40:30;;;;;;;10.35;3.92;;;11.40;99.90;;;;;;5034211;28;20176;-75
2022/04/15 01:42:56;;;;;;;7.65;2.90;;;11.50;99.90;;;;;;5034673;28;20054;-75
2022/04/15 01:45:21;;;;;;;8.20;3.08;;;11.30;99.90;;;;;;5034514;28;20076;-75
2022/04/15 01:47:47;;;;;;;8.32;2.75;;;11.20;99.90;;;;;;5034791;28;20139;-75
2022/04/15 01:50:13;;;;;;;10.52;2.95;;;11.20;99.90;;;;;;5034448;28;20060;-75
2022/04/15 01:52:38;;;;;;;7.07;2.95;;;11.20;99.90;;;;;;5034383;28;20041;-75
2022/04/15 01:55:04;;;;;;;9.40;3.17;;;11.10;99.90;;;;;;5034572;28;20056;-75
2022/04/15 01:57:30;;;;;;;7.70;2.97;;;11.10;99.90;;;;;;5034279;28;20048;-75
2022/04/15 01:59:56;;;;;;;7.22;3.13;;;11.30;99.90;;;;;;5035888;28;20045;-75
2022/04/15 02:02:21;;;;;;;12.45;4.47;;;11.30;99.90;;;;;;5034456;28;20389;-75
2022/04/15 02:04:47;;;;;;;14.35;3.72;;;11.30;99.90;;;;;;5034225;28;20527;-75
2022/04/15 02:07:13;;;;;;;13.95;4.03;;;11.30;99.90;;;;;;5034016;28;20137;-75
2022/04/15 02:09:38;;;;;;;6.55;3.00;;;11.20;99.90;;;;;;5033025;28;20060;-75
2022/04/15 02:12:05;;;;;;;8.93;3.53;;;11.10;99.90;;;;;;5017536;28;20057;-75
2022/04/15 02:14:30;;;;;;;9.35;3.00;;;11.20;99.90;;;;;;5033994;28;20472;-75
2022/04/15 02:16:57;;;;;;;8.20;3.25;;;11.20;99.90;;;;;;5034059;28;20049;-75
2022/04/15 02:19:23;;;;;;;8.30;3.30;;;11.40;99.90;;;;;;5033866;28;20057;-75
2022/04/15 02:21:49;;;;;;;7.97;3.53;;;11.40;99.90;;;;;;5033715;28;20050;-75
2022/04/15 02:24:15;;;;;;;11.65;3.45;;;11.60;99.90;;;;;;5033791;28;20053;-75
2022/04/15 02:26:42;;;;;;;11.68;4.30;;;11.60;99.90;;;;;;5034784;28;20050;-75
2022/04/15 02:29:08;;;;;;;12.95;4.65;;;11.60;99.90;;;;;;5033604;28;20076;-75
2022/04/15 02:31:33;;;;;;;14.82;4.53;;;11.30;99.90;;;;;;5033901;28;20045;-75
2022/04/15 02:33:59;;;;;;;11.40;4.78;;;11.40;99.90;;;;;;5033589;28;20163;-75
2022/04/15 02:36:25;;;;;;;9.93;4.53;;;11.40;99.90;;;;;;5033386;28;20050;-75
2022/04/15 02:38:50;;;;;;;15.02;4.78;;;11.40;99.90;;;;;;5033200;28;20184;-76
2022/04/15 02:41:17;;;;;;;10.77;4.40;;;11.50;99.90;;;;;;5033930;28;20099;-75
2022/04/15 02:43:42;;;;;;;15.15;4.78;;;11.50;99.90;;;;;;5033000;28;20099;-75
2022/04/15 02:46:10;;;;;;;11.18;4.75;;;11.40;99.90;;;;;;5033350;28;20053;-76
2022/04/15 02:48:36;;;;;;;13.65;3.72;;;11.40;99.90;;;;;;5033367;28;20056;-75
2022/04/15 02:51:03;;;;;;;11.10;4.05;;;11.40;99.90;;;;;;5033145;28;20041;-76
2022/04/15 02:53:30;;;;;;;8.68;3.65;;;11.50;99.90;;;;;;5033169;28;20060;-75
2022/04/15 02:55:56;;;;;;;14.82;4.78;;;11.50;99.90;;;;;;5033263;28;20400;-75
2022/04/15 02:58:22;;;;;;;16.85;6.75;;;11.60;99.90;;;;;;5033206;28;20133;-76
2022/04/15 03:00:48;;;;;;;16.48;8.82;;;11.40;99.90;;;;;;5033134;28;20148;-75
2022/04/15 03:03:14;;;;;;;21.63;9.85;;;11.40;99.90;;;;;;5033224;28;20065;-76
2022/04/15 03:05:40;;;;;;;20.92;10.30;;;11.30;99.90;;;;;;5032875;28;20053;-75
2022/04/15 03:08:06;;;;;;;22.23;10.10;;;11.10;99.90;;;;;;5032690;28;20053;-75
2022/04/15 03:10:32;;;;;;;18.33;10.30;;;11.10;99.90;;;;;;5032649;28;20053;-75
2022/04/15 03:12:57;;;;;;;19.38;9.57;;;11.00;99.90;;;;;;5032927;28;20084;-75
2022/04/15 03:15:23;;;;;;;18.60;10.40;;;10.70;99.90;;;;;;5033205;28;20484;-75
2022/04/15 03:17:49;;;;;;;17.70;9.55;;;10.70;99.90;;;;;;5032793;28;20049;-75
2022/04/15 03:20:14;;;;;;;20.52;10.07;;;10.70;99.90;;;;;;5032897;28;20049;-75
2022/04/15 03:22:42;;;;;;;16.58;9.90;;;10.80;99.90;;;;;;5033460;28;20081;-75
2022/04/15 03:25:10;;;;;;;14.93;7.97;;;10.90;99.90;;;;;;5033084;28;20134;-75
2022/04/15 03:27:36;;;;;;;18.15;8.43;;;10.80;99.90;;;;;;5032768;28;20053;-75
2022/04/15 03:30:04;;;;;;;12.23;8.23;;;10.80;99.90;;;;;;5032740;28;20084;-75
2022/04/15 03:32:30;;;;;;;10.43;7.38;;;10.90;99.90;;;;;;5032649;28;20476;-75
2022/04/15 03:34:57;;;;;;;11.73;6.15;;;11.00;99.90;;;;;;5032856;28;20460;-75
2022/04/15 03:37:23;;;;;;;8.13;5.90;;;10.90;99.90;;;;;;5032431;28;20052;-75
2022/04/15 03:39:48;;;;;;;9.73;5.78;;;10.60;99.90;;;;;;5032423;28;20132;-75
2022/04/15 03:42:14;;;;;;;7.75;5.38;;;10.50;99.90;;;;;;5032330;28;20052;-75
2022/04/15 03:44:40;;;;;;;8.40;6.20;;;10.60;99.90;;;;;;5032608;28;20128;-75
2022/04/15 03:47:06;;;;;;;7.80;5.75;;;10.70;99.90;;;;;;5016055;28;20098;-76
2022/04/15 03:49:32;;;;;;;12.82;5.72;;;10.80;99.90;;;;;;5032566;28;20045;-75
2022/04/15 03:51:58;;;;;;;8.15;5.13;;;10.80;99.90;;;;;;5032599;28;20077;-75
2022/04/15 03:54:24;;;;;;;7.80;6.20;;;10.80;99.90;;;;;;5033100;28;20049;-75
2022/04/15 03:56:50;;;;;;;8.85;5.00;;;10.80;99.90;;;;;;5036548;28;20392;-75
2022/04/15 03:59:16;;;;;;;10.73;5.13;;;10.50;99.90;;;;;;5036528;28;20085;-75
2022/04/15 04:01:42;;;;;;;6.82;5.00;;;10.60;99.90;;;;;;5036570;28;20051;-75
2022/04/15 04:04:08;;;;;;;9.32;4.97;;;10.60;99.90;;;;;;5035680;28;20053;-75
2022/04/15 04:06:34;;;;;;;7.50;3.92;;;10.40;99.90;;;;;;5035193;28;20046;-75
2022/04/15 04:09:00;;;;;;;9.05;4.53;;;10.30;99.90;;;;;;5034786;28;20066;-75
2022/04/15 04:11:26;;;;;;;6.68;3.95;;;10.40;99.90;;;;;;5035027;28;20089;-75
2022/04/15 04:13:52;;;;;;;7.93;3.67;;;10.40;99.90;;;;;;5034928;28;20085;-75
2022/04/15 04:16:18;;;;;;;8.60;3.80;;;10.40;99.90;;;;;;5034720;28;20045;-76
2022/04/15 04:18:44;;;;;;;6.38;3.35;;;10.40;99.90;;;;;;5034852;28;20057;-75
2022/04/15 04:21:10;;;;;;;8.70;3.85;;;10.40;99.90;;;;;;5034785;28;20160;-75
2022/04/15 04:23:36;;;;;;;5.82;3.55;;;10.30;99.90;;;;;;5034818;28;20136;-75
2022/04/15 04:26:03;;;;;;;7.45;3.40;;;10.30;99.90;;;;;;5034724;28;20099;-75
2022/04/15 04:28:30;;;;;;;4.80;2.90;;;10.50;99.90;;;;;;5034794;28;20076;-75
2022/04/15 04:30:55;;;;;;;6.05;2.70;;;10.40;99.90;;;;;;5034686;28;20094;-75
2022/04/15 04:33:21;;;;;;;5.72;2.65;;;10.20;99.90;;;;;;5034643;28;20312;-75
2022/04/15 04:35:48;;;;;;;7.93;2.60;;;10.10;99.90;;;;;;5034785;28;20077;-75
2022/04/15 04:38:13;;;;;;;3.65;2.30;;;10.00;99.90;;;;;;5034028;28;20038;-75
2022/04/15 04:40:40;;;;;;;4.78;2.30;;;9.80;99.90;;;;;;5034206;28;20042;-75
2022/04/15 04:43:07;;;;;;;4.60;2.00;;;9.80;99.90;;;;;;5034516;28;20128;-75
2022/04/15 04:45:33;;;;;;;6.18;2.20;;;9.90;99.90;;;;;;5018141;28;20373;-75
2022/04/15 04:48:01;;;;;;;4.03;2.20;;;9.90;99.90;;;;;;5035431;28;20049;-75
2022/04/15 04:50:28;;;;;;;6.38;2.42;;;9.80;99.90;;;;;;5034460;28;20439;-75
2022/04/15 04:52:54;;;;;;;4.60;2.55;;;9.80;99.90;;;;;;5034282;28;20396;-75
2022/04/15 04:55:20;;;;;;;6.38;2.50;;;9.80;99.90;;;;;;5034349;28;20476;-75
2022/04/15 04:57:46;;;;;;;8.40;2.38;;;9.60;99.90;;;;;;5034132;28;20084;-75
2022/04/15 05:00:14;;;;;;;4.03;2.65;;;9.50;99.90;;;;;;5034085;28;20051;-75
2022/04/15 05:02:40;;;;;;;5.65;2.10;;;9.70;99.90;;;;;;5033975;28;20451;-75
2022/04/15 05:05:07;;;;;;;4.95;2.10;;;9.80;99.90;;;;;;5033960;28;20050;-75
2022/04/15 05:07:34;;;;;;;3.28;2.08;;;9.80;99.90;;;;;;4993825;28;1100279;-75
2022/04/15 05:10:00;;;;;;;3.70;1.98;;;9.90;99.90;;;;;;5034836;28;20069;-75
2022/04/15 05:12:25;;;;;;;4.85;2.50;;;10.00;99.90;;;;;;5035200;28;20049;-76
2022/04/15 05:14:51;;;;;;;8.73;2.85;;;10.00;99.90;;;;;;5035103;28;20056;-75
2022/04/15 05:17:17;;;;;;;7.93;2.83;;;10.00;99.90;;;;;;5035384;28;20042;-75
2022/04/15 05:19:44;;;;;;;5.22;2.92;;;9.90;99.90;;;;;;5035107;28;20047;-75
2022/04/15 05:22:10;;;;;;;6.07;3.58;;;9.90;99.90;;;;;;5035074;28;20049;-75
2022/04/15 05:24:36;;;;;;;10.98;4.55;;;9.80;99.90;;;;;;5034998;28;20396;-75
2022/04/15 05:27:02;;;;;;;8.15;4.30;;;9.60;99.90;;;;;;5034904;28;20049;-75
2022/04/15 05:29:28;;;;;;;9.10;5.50;;;9.60;99.90;;;;;;5034621;28;20542;-75
2022/04/15 05:31:53;;;;;;;7.20;4.50;;;9.60;99.90;;;;;;5034683;28;20049;-75
2022/04/15 05:34:19;;;;;;;10.35;4.82;;;9.70;99.90;;;;;;5035300;28;20157;-75
2022/04/15 05:36:45;;;;;;;12.23;6.03;;;9.90;99.90;;;;;;5034579;28;20103;-75
2022/04/15 05:39:10;;;;;;;7.07;4.45;;;10.00;99.90;;;;;;5034255;28;20045;-75
2022/04/15 05:41:36;;;;;;;7.53;4.10;;;9.90;99.90;;;;;;5034661;28;20133;-75
2022/04/15 05:44:03;;;;;;;7.65;4.75;;;10.00;99.90;;;;;;5034571;28;20136;-76
2022/04/15 05:46:30;;;;;;;11.10;5.68;;;10.00;99.90;;;;;;5034555;28;20095;-75
2022/04/15 05:48:55;;;;;;;9.15;5.03;;;10.00;99.90;;;;;;5034592;28;20048;-75
2022/04/15 05:51:21;;;;;;;12.57;6.65;;;10.20;99.90;;;;;;5034465;28;20053;-75
2022/04/15 05:53:47;;;;;;;10.05;5.57;;;10.30;99.90;;;;;;5034430;28;20045;-75
2022/04/15 05:56:12;;;;;;;9.65;6.22;;;10.40;99.90;;;;;;5034282;28;20048;-75
2022/04/15 05:58:40;;;;;;;13.07;6.60;;;10.50;99.90;;;;;;5034301;28;20052;-75
2022/04/15 06:01:09;;;;;;;13.57;6.80;;;10.50;99.90;;;;;;5034415;28;20053;-75
2022/04/15 06:03:35;;;;;;;12.35;6.75;;;10.50;99.90;;;;;;5034736;28;20052;-75
2022/04/15 06:06:01;;;;;;;13.80;6.80;;;10.50;99.90;;;;;;5034160;28;20045;-75
2022/04/15 06:08:28;;;;;;;10.23;6.50;;;10.60;99.90;;;;;;5033893;28;20419;-75
2022/04/15 06:10:53;;;;;;;15.90;7.07;;;10.70;99.90;;;;;;5033632;28;20064;-75
2022/04/15 06:13:22;;;;;;;18.40;7.70;;;10.90;99.90;;;;;;5033970;28;20061;-76
2022/04/15 06:15:53;;;;;;;15.48;7.40;;;10.70;99.90;;;;;;5034093;28;20060;-75
2022/04/15 06:18:34;;;;;;;14.23;7.63;;;10.70;99.90;;;;;;5033099;28;20175;-69
2022/04/15 06:21:00;;;;;;;12.25;6.53;;;10.70;99.90;;;;;;5039782;28;20049;-73
2022/04/15 06:23:27;;;;;;;9.43;6.05;;;10.80;99.90;;;;;;5037056;28;20053;-73
2022/04/15 06:25:53;;;;;;;11.25;6.10;;;10.80;99.90;;;;;;5034758;28;20056;-71
2022/04/15 06:28:21;;;;;;;11.18;6.55;;;10.80;99.90;;;;;;5033698;28;20128;-72
2022/04/15 06:30:50;;;;;;;10.00;6.25;;;10.80;99.90;;;;;;5034647;28;20049;-73
2022/04/15 06:33:18;;;;;;;13.77;6.55;;;10.80;99.90;;;;;;5034724;28;20053;-70
2022/04/15 06:35:45;;;;;;;13.00;7.82;;;10.90;99.90;;;;;;5033563;28;20056;-69
2022/04/15 06:38:11;;;;;;;18.90;7.38;;;10.70;99.90;;;;;;5034437;28;20050;-69
2022/04/15 06:40:38;;;;;;;15.30;8.45;;;10.70;99.90;;;;;;5034195;28;20383;-69
2022/04/15 06:43:05;;;;;;;15.20;8.32;;;10.80;99.90;;;;;;5034447;28;20088;-70
2022/04/15 06:45:30;;;;;;;18.98;9.48;;;10.80;99.90;;;;;;5034339;28;20052;-69
2022/04/15 06:47:56;;;;;;;16.27;10.00;;;10.80;99.90;;;;;;5034435;28;20045;-70
2022/04/15 06:50:22;;;;;;;21.55;10.65;;;10.90;99.90;;;;;;5034210;28;20048;-70
2022/04/15 06:52:48;;;;;;;20.98;10.88;;;10.80;99.90;;;;;;5034233;28;20054;-73
2022/04/15 06:55:14;;;;;;;18.40;10.82;;;10.80;99.90;;;;;;5034272;28;20046;-71
2022/04/15 06:57:39;;;;;;;17.27;9.98;;;10.80;99.90;;;;;;5033973;28;20060;-71
2022/04/15 07:00:06;;;;;;;24.10;10.40;;;11.00;99.90;;;;;;5034000;28;20480;-70
2022/04/15 07:02:34;;;;;;;19.92;10.43;;;10.90;99.90;;;;;;5034151;28;20060;-70
2022/04/15 07:04:59;;;;;;;24.27;12.23;;;10.90;99.90;;;;;;5034086;28;20099;-70
2022/04/15 07:07:25;;;;;;;20.67;10.07;;;10.90;99.90;;;;;;5033254;28;20069;-75
2022/04/15 07:09:51;;;;;;;20.50;10.60;;;11.00;99.90;;;;;;5032621;28;20058;-73
2022/04/15 07:12:17;;;;;;;19.58;9.73;;;11.00;99.90;;;;;;5033871;28;20059;-75
2022/04/15 07:14:43;;;;;;;16.98;9.40;;;11.10;99.90;;;;;;5033785;28;20045;-71
2022/04/15 07:17:09;;;;;;;20.42;10.00;;;11.30;99.90;;;;;;5033325;28;20042;-70
2022/04/15 07:19:35;;;;;;;20.23;9.05;;;11.30;99.90;;;;;;5032514;28;20187;-70
2022/04/15 07:22:00;;;;;;;21.58;8.95;;;11.10;99.90;;;;;;5031423;28;20057;-70
2022/04/15 07:24:27;;;;;;;18.05;9.10;;;11.00;99.90;;;;;;5032365;28;20053;-71
2022/04/15 07:26:53;;;;;;;20.25;9.40;;;11.10;99.90;;;;;;5032399;28;20053;-72
2022/04/15 07:29:20;;;;;;;24.15;9.10;;;11.00;99.90;;;;;;5032271;28;20140;-70
2022/04/15 07:31:46;;;;;;;19.65;9.18;;;11.00;99.90;;;;;;5033721;28;20053;-70
2022/04/15 07:34:12;;;;;;;15.23;8.55;;;11.10;99.90;;;;;;5033625;28;20114;-71
2022/04/15 07:39:06;;;;;;;22.73;8.75;;;11.20;99.90;;;;;;5033789;28;20049;-72
2022/04/15 07:41:33;;;;;;;19.67;9.25;;;11.50;99.90;;;;;;5034508;28;20392;-72
2022/04/15 07:43:58;;;;;;;21.08;8.77;;;11.50;99.90;;;;;;5033596;28;20049;-73
2022/04/15 07:46:24;;;;;;;17.15;8.32;;;11.50;99.90;;;;;;5033342;28;20057;-73
2022/04/15 07:48:50;;;;;;;16.30;7.68;;;11.30;99.90;;;;;;5032557;28;20081;-71
2022/04/15 07:51:15;;;;;;;14.35;6.82;;;11.10;99.90;;;;;;5033554;28;20052;-71
2022/04/15 07:53:41;;;;;;;23.00;6.78;;;11.20;99.90;;;;;;5033234;28;20089;-71
2022/04/15 07:56:07;;;;;;;14.32;6.00;;;11.40;99.90;;;;;;5033481;28;20046;-71
2022/04/15 07:58:32;;;;;;;12.90;5.47;;;11.50;99.90;;;;;;5015916;28;20034;-71
2022/04/15 08:01:01;;;;;;;13.52;6.05;;;11.50;99.90;;;;;;5033453;28;20088;-72
2022/04/15 08:03:27;;;;;;;14.93;5.85;;;11.70;99.90;;;;;;5032338;28;20507;-72
2022/04/15 08:05:54;;;;;;;13.20;5.35;;;11.80;99.90;;;;;;5032373;28;20381;-72
2022/04/15 08:08:20;;;;;;;10.93;5.35;;;11.80;99.90;;;;;;5032244;28;20487;-72
2022/04/15 08:10:47;;;;;;;8.00;4.50;;;12.00;99.90;;;;;;5030895;28;20045;-72
2022/04/15 08:13:13;;;;;;;9.32;4.18;;;12.00;99.90;;;;;;5033060;28;20085;-72
2022/04/15 08:15:38;;;;;;;9.70;3.97;;;11.80;99.90;;;;;;5032050;28;20085;-72
2022/04/15 08:18:04;;;;;;;8.18;4.40;;;12.00;99.90;;;;;;5032284;28;20046;-72
2022/04/15 08:20:30;;;;;;;8.05;3.97;;;11.80;99.90;;;;;;5032502;28;20084;-72
2022/04/15 08:22:55;;;;;;;8.70;4.40;;;11.80;99.90;;;;;;5031456;28;20065;-72
2022/04/15 08:25:21;;;;;;;9.73;4.30;;;11.60;99.90;;;;;;5032604;28;20045;-72
2022/04/15 08:27:47;;;;;;;11.07;4.50;;;11.80;99.90;;;;;;5033220;28;20042;-71
2022/04/15 08:30:12;;;;;;;14.40;4.38;;;11.90;99.90;;;;;;5032100;28;20361;-71
2022/04/15 08:32:38;;;;;;;10.02;4.47;;;11.50;99.90;;;;;;5033105;28;20072;-72
2022/04/15 08:35:06;;;;;;;13.02;4.47;;;11.60;99.90;;;;;;5033133;28;20058;-70
2022/04/15 08:37:33;;;;;;;10.73;4.68;;;11.60;99.90;;;;;;5032984;28;20072;-71
2022/04/15 08:39:59;;;;;;;9.13;4.13;;;11.50;99.90;;;;;;5032462;28;20480;-71
2022/04/15 08:42:26;;;;;;;9.07;4.15;;;11.70;99.90;;;;;;5036757;28;20045;-71
2022/04/15 08:44:53;;;;;;;13.57;4.80;;;11.90;99.90;;;;;;5036499;28;20053;-70
2022/04/15 08:47:20;;;;;;;9.88;4.32;;;11.90;99.90;;;;;;5036713;28;20056;-70
2022/04/15 08:49:47;;;;;;;10.25;4.40;;;12.00;99.90;;;;;;5036522;28;20477;-70
2022/04/15 08:52:16;;;;;;;12.23;4.93;;;12.00;99.90;;;;;;5035511;28;20060;-70
2022/04/15 08:54:46;;;;;;;10.20;4.65;;;11.90;99.90;;;;;;5036729;28;20049;-70
2022/04/15 08:57:11;;;;;;;9.35;4.57;;;12.00;99.90;;;;;;5035351;28;20077;-70
2022/04/15 08:59:40;;;;;;;10.80;4.70;;;12.10;99.90;;;;;;5051922;28;20088;-70
2022/04/15 09:02:07;;;;;;;10.65;4.47;;;11.90;99.90;;;;;;5036116;28;20492;-71
2022/04/15 09:04:33;;;;;;;7.45;4.13;;;12.00;99.90;;;;;;5035956;28;20041;-70
2022/04/15 09:07:00;;;;;;;7.50;4.55;;;12.30;99.90;;;;;;5036400;28;20049;-70
2022/04/15 09:09:33;;;;;;;7.68;4.75;;;12.80;99.90;;;;;;5036173;28;20476;-70
2022/04/15 09:12:03;;;;;;;9.75;4.10;;;12.80;99.90;;;;;;5036058;28;20492;-70
2022/04/15 09:14:29;;;;;;;12.10;4.30;;;13.00;99.90;;;;;;5036494;28;20084;-70
2022/04/15 09:16:54;;;;;;;9.90;4.40;;;13.20;99.90;;;;;;5035990;28;20463;-71
2022/04/15 09:19:20;;;;;;;8.38;4.38;;;13.00;99.90;;;;;;5036125;28;20056;-70
2022/04/15 09:21:56;;;;;;;9.02;4.30;;;13.20;99.90;;;;;;5034934;28;20049;-70
2022/04/15 09:24:32;;;;;;;;;;;13.00;99.90;;;;;;5052022;28;20459;-71
2022/04/15 09:27:06;;;;;;;11.02;5.20;;;13.00;99.90;;;;;;5035511;28;19921;-72
2022/04/15 09:29:36;;;;;;;10.40;4.90;;;12.80;99.90;;;;;;5035874;28;20092;-70
2022/04/15 09:32:14;;;;;;;8.02;4.50;;;12.70;99.90;;;;;;5036440;28;20452;-70
2022/04/15 09:34:58;;;;;;;12.65;4.85;;;12.80;99.90;;;;;;5035499;28;20514;-70
2022/04/15 09:37:39;;;;;;;10.00;4.90;;;12.90;99.90;;;;;;5051146;28;20045;-72
2022/04/15 09:40:14;;;;;;;10.27;5.82;;;13.20;99.90;;;;;;5035432;28;20087;-70
2022/04/15 09:42:44;;;;;;;10.18;4.60;;;13.30;99.90;;;;;;5035594;28;20057;-70
2022/04/15 09:45:18;;;;;;;8.05;4.40;;;13.30;99.90;;;;;;5051063;28;20488;-70
2022/04/15 09:47:58;;;;;;;9.73;4.97;;;13.40;99.90;;;;;;5035509;28;20042;-70
2022/04/15 09:50:25;;;;;;;9.82;4.55;;;13.40;99.90;;;;;;5034284;28;20053;-70
2022/04/15 09:52:51;;;;;;;9.95;5.28;;;13.40;99.90;;;;;;5034262;28;20049;-71
2022/04/15 09:55:20;;;;;;;9.02;5.43;;;13.40;99.90;;;;;;5034091;28;20045;-71
2022/04/15 09:57:50;;;;;;;13.45;5.25;;;13.40;99.90;;;;;;5035294;28;20048;-70
2022/04/15 10:00:18;;;;;;;10.23;5.03;;;13.10;99.90;;;;;;5035305;28;20046;-71
2022/04/15 10:02:45;;;;;;;8.35;5.15;;;13.10;99.90;;;;;;5034187;28;20053;-70
2022/04/15 10:05:14;;;;;;;11.65;5.47;;;12.90;99.90;;;;;;5034881;28;20488;-71
2022/04/15 10:07:40;;;;;;;10.98;5.78;;;12.90;99.90;;;;;;5034903;28;20045;-71
2022/04/15 10:10:09;;;;;;;11.50;5.03;;;12.90;99.90;;;;;;5033666;28;20437;-71
2022/04/15 10:12:41;;;;;;;7.65;4.75;;;12.90;99.90;;;;;;5035012;28;20049;-71
2022/04/15 10:15:09;;;;;;;12.45;5.30;;;13.00;99.90;;;;;;5035138;28;20042;-71
2022/04/15 10:17:38;;;;;;;11.40;5.70;;;13.00;99.90;;;;;;5034833;28;20099;-71
2022/04/15 10:20:04;;;;;;;12.10;5.18;;;13.10;99.90;;;;;;5033976;28;20052;-70
2022/04/15 10:22:31;;;;;;;8.80;4.95;;;13.10;99.90;;;;;;5034828;28;20045;-70
2022/04/15 10:24:56;;;;;;;8.30;4.80;;;12.90;99.90;;;;;;5034893;28;20048;-70
2022/04/15 10:27:26;;;;;;;8.95;4.32;;;13.00;99.90;;;;;;5034739;28;20439;-71
2022/04/15 10:30:18;;;;;;;8.55;4.53;;;12.70;99.90;;;;;;5033569;28;20724;-71
2022/04/15 10:33:02;;;;;;;9.20;4.28;;;12.70;99.90;;;;;;5034698;28;20060;-70
2022/04/15 10:35:32;;;;;;;6.35;4.30;;;12.70;99.90;;;;;;5034670;28;20045;-70
2022/04/15 10:38:09;;;;;;;6.38;4.30;;;12.60;99.90;;;;;;5033308;28;20053;-71
2022/04/15 10:40:35;;;;;;;7.63;4.90;;;12.80;99.90;;;;;;5034283;28;20127;-70
2022/04/15 10:43:27;;;;;;;7.57;4.53;;;13.00;99.90;;;;;;5034446;28;20388;-71
2022/04/15 10:46:14;;;;;;;8.23;4.53;;;13.00;99.90;;;;;;5029358;28;20409;-71
2022/04/15 10:48:40;;;;;;;8.88;4.72;;;13.10;99.90;;;;;;5034412;28;20052;-71
2022/04/15 10:51:25;;;;;;;8.73;4.78;;;12.90;99.90;;;;;;5034910;28;20174;-71
2022/04/15 10:53:52;;;;;;;12.05;4.88;;;12.90;99.90;;;;;;5033494;28;20053;-70
2022/04/15 10:56:20;;;;;;;9.13;5.20;;;13.20;99.90;;;;;;5034142;28;20045;-74
2022/04/15 11:02:02;;;;;;;9.68;4.90;;;13.40;99.90;;;;;;5036099;28;20076;-72
2022/04/15 11:04:35;;;;;;;6.97;4.22;;;12.80;99.90;;;;;;5016635;28;20056;-73
2022/04/15 11:07:24;;;;;;;10.38;4.90;;;12.80;99.90;;;;;;5033774;28;20049;-74
2022/04/15 11:09:50;;;;;;;6.28;3.95;;;12.90;99.90;;;;;;5049212;28;20062;-73
2022/04/15 11:12:29;;;;;;;5.88;3.70;;;13.00;99.90;;;;;;5033973;28;20187;-73
2022/04/15 11:14:54;;;;;;;7.72;4.15;;;13.00;99.90;;;;;;5033905;28;20494;-72
2022/04/15 11:17:37;;;;;;;6.13;4.53;;;13.10;99.90;;;;;;5033754;28;20133;-72
2022/04/15 11:20:05;;;;;;;8.43;5.03;;;13.10;99.90;;;;;;5033895;28;20057;-71
2022/04/15 11:22:31;;;;;;;10.32;4.55;;;13.00;99.90;;;;;;5032662;28;20477;-71
2022/04/15 11:24:57;;;;;;;7.38;3.80;;;12.90;99.90;;;;;;5033677;28;20049;-71
2022/04/15 11:27:24;;;;;;;8.00;4.60;;;13.00;99.90;;;;;;5033049;28;20396;-72
2022/04/15 11:29:51;;;;;;;8.23;4.07;;;13.10;99.90;;;;;;5033651;28;20056;-78
2022/04/15 11:32:16;;;;;;;8.63;4.13;;;13.30;99.90;;;;;;5033595;28;20049;-73
2022/04/15 11:34:42;;;;;;;8.88;4.30;;;13.40;99.90;;;;;;5036445;28;20057;-73
2022/04/15 11:37:09;;;;;;;8.38;4.65;;;13.40;99.90;;;;;;5032475;28;20046;-74
2022/04/15 11:39:36;;;;;;;6.60;4.38;;;13.20;99.90;;;;;;5031826;28;20399;-74
2022/04/15 11:42:08;;;;;;;8.25;3.95;;;13.10;99.90;;;;;;5049102;28;20053;-75
2022/04/15 11:44:34;;;;;;;8.93;4.80;;;12.70;99.90;;;;;;5032768;28;20054;-70
2022/04/15 11:49:46;;;;;;;8.45;4.15;;;12.80;99.90;;;;;;5032232;28;20060;-71
2022/04/15 11:52:21;;;;;;;7.43;4.22;;;12.80;99.90;;;;;;5048324;28;20128;-72
2022/04/15 11:54:47;;;;;;;8.37;4.27;;;12.80;99.90;;;;;;5033106;28;20042;-84
2022/04/15 11:57:13;;;;;;;7.28;3.50;;;12.90;99.90;;;;;;5032371;28;20483;-84
2022/04/15 11:59:40;;;;;;;8.48;4.22;;;13.10;99.90;;;;;;5032691;28;20045;-71
2022/04/15 12:02:06;;;;;;;8.15;4.10;;;13.10;99.90;;;;;;5033720;28;20100;-85
2022/04/15 12:04:32;;;;;;;7.75;3.85;;;13.20;99.90;;;;;;5032490;28;20484;-83
2022/04/15 12:06:58;;;;;;;6.93;4.25;;;13.20;99.90;;;;;;5032338;28;20060;-82
2022/04/15 12:09:25;;;;;;;7.63;4.68;;;13.20;99.90;;;;;;5031851;28;20166;-84
2022/04/15 12:11:51;;;;;;;6.75;4.25;;;13.20;99.90;;;;;;5015971;28;20053;-81
2022/04/15 12:14:18;;;;;;;8.48;3.90;;;13.10;99.90;;;;;;5033191;28;20140;-86
2022/04/15 12:16:45;;;;;;;11.77;4.82;;;13.10;99.90;;;;;;5035295;28;20522;-83
2022/04/15 12:19:11;;;;;;;7.50;4.75;;;13.20;99.90;;;;;;5036080;28;20056;-71
2022/04/15 12:21:38;;;;;;;7.75;4.10;;;13.30;99.90;;;;;;5036182;28;20492;-71
2022/04/15 12:24:08;;;;;;;9.07;4.32;;;13.00;99.90;;;;;;5037081;28;20045;-71
2022/04/15 12:26:49;;;;;;;9.32;4.82;;;13.00;99.90;;;;;;5037141;28;20404;-72
2022/04/15 12:32:15;;;;;;;6.95;4.72;;;13.10;99.90;;;;;;5035733;28;20064;-72
2022/04/15 12:34:42;;;;;;;;;;;13.30;99.90;;;;;;5036519;28;20041;-72
2022/04/15 12:37:35;;;;;;;8.40;4.20;;;13.40;99.90;;;;;;5036762;28;19928;-85
2022/04/15 12:40:04;;;;;;;6.43;4.30;;;13.50;99.90;;;;;;5036804;28;20042;-71
2022/04/15 12:42:31;;;;;;;7.20;4.25;;;13.20;99.90;;;;;;5036564;28;20135;-70
2022/04/15 12:44:58;;;;;;;8.82;4.97;;;13.30;99.90;;;;;;5036692;28;20049;-69
2022/04/15 12:47:26;;;;;;;11.70;5.28;;;13.30;99.90;;;;;;5035680;28;20045;-72
2022/04/15 12:49:52;;;;;;;9.57;4.97;;;13.40;99.90;;;;;;5036993;28;20053;-71
2022/04/15 12:52:19;;;;;;;13.55;4.97;;;13.10;99.90;;;;;;5036877;28;20135;-71
2022/04/15 12:55:23;;;;;;;10.50;4.97;;;13.10;99.90;;;;;;5036511;28;20045;-71